createdAt,value
2016-07-22T00:00:53.558Z,1010.09
2016-07-22T00:04:07.443Z,1010.11
2016-07-22T00:07:25.275Z,1010.09
2016-07-22T00:10:30.440Z,1010.15
2016-07-22T00:13:43.219Z,1010.07
2016-07-22T00:16:58.122Z,1010.09
2016-07-22T00:20:12.054Z,1010.15
2016-07-22T00:23:29.897Z,1010.15
2016-07-22T00:26:35.268Z,1010.13
2016-07-22T00:29:48.407Z,1010.23
2016-07-22T00:33:01.492Z,1010.15
2016-07-22T00:36:15.318Z,1010.13
2016-07-22T00:39:33.062Z,1010.09
2016-07-22T00:42:38.033Z,1010.15
2016-07-22T00:45:52.540Z,1010.17
2016-07-22T00:49:01.707Z,1010.27
2016-07-22T00:52:14.355Z,1010.21
2016-07-22T00:55:32.167Z,1010.19
2016-07-22T00:58:36.225Z,1010.17
2016-07-22T01:01:50.971Z,1010.23
2016-07-22T01:05:04.695Z,1010.19
2016-07-22T01:08:18.460Z,1010.15
2016-07-22T01:11:36.168Z,1010.11
2016-07-22T01:14:41.309Z,1010.15
2016-07-22T01:17:55.168Z,1010.07
2016-07-22T01:21:09.067Z,1010.03
2016-07-22T01:24:27.140Z,1009.97
2016-07-22T01:27:36.338Z,1010.01
2016-07-22T01:30:41.383Z,1009.97
2016-07-22T01:33:55.158Z,1009.91
2016-07-22T01:37:09.075Z,1009.93
2016-07-22T01:40:26.852Z,1009.91
2016-07-22T01:43:36.033Z,1009.89
2016-07-22T01:46:41.183Z,1009.97
2016-07-22T01:49:55.224Z,1010.05
2016-07-22T01:53:09.185Z,1010.01
2016-07-22T01:56:27.005Z,1010.01
2016-07-22T01:59:35.890Z,1010.05
2016-07-22T02:02:41.076Z,1010.05
2016-07-22T02:05:54.754Z,1009.93
2016-07-22T02:09:08.394Z,1009.87
2016-07-22T02:12:22.108Z,1009.93
2016-07-22T02:15:35.842Z,1009.93
2016-07-22T02:18:49.319Z,1009.97
2016-07-22T02:22:03.330Z,1009.87
2016-07-22T02:25:17.184Z,1009.99
2016-07-22T02:28:34.692Z,1010.01
2016-07-22T02:31:39.808Z,1010.01
2016-07-22T02:34:53.621Z,1010.03
2016-07-22T02:38:07.392Z,1010.01
2016-07-22T02:41:21.447Z,1010.03
2016-07-22T02:44:34.923Z,1010.05
2016-07-22T02:47:48.756Z,1010.11
2016-07-22T02:51:02.437Z,1010.03
2016-07-22T02:54:16.086Z,1010.03
2016-07-22T02:57:33.957Z,1010.05
2016-07-22T03:00:39.057Z,1010.03
2016-07-22T03:03:52.637Z,1010.15
2016-07-22T03:07:05.361Z,1010.15
2016-07-22T03:10:20.140Z,1010.17
2016-07-22T03:13:33.883Z,1010.21
2016-07-22T03:16:47.640Z,1010.33
2016-07-22T03:20:01.250Z,1010.27
2016-07-22T03:23:15.106Z,1010.41
2016-07-22T03:26:32.923Z,1010.27
2016-07-22T03:29:37.939Z,1010.35
2016-07-22T03:32:51.713Z,1010.35
2016-07-22T03:36:05.447Z,1010.35
2016-07-22T03:39:18.987Z,1010.39
2016-07-22T03:42:32.792Z,1010.41
2016-07-22T03:45:46.264Z,1010.43
2016-07-22T03:49:00.225Z,1010.41
2016-07-22T03:52:13.694Z,1010.45
2016-07-22T03:55:31.364Z,1010.55
2016-07-22T03:58:36.518Z,1010.59
2016-07-22T04:01:50.254Z,1010.59
2016-07-22T04:05:04.046Z,1010.59
2016-07-22T04:08:17.910Z,1010.57
2016-07-22T04:11:35.577Z,1010.59
2016-07-22T04:14:40.630Z,1010.67
2016-07-22T04:17:53.944Z,1010.61
2016-07-22T04:21:07.794Z,1010.57
2016-07-22T04:24:21.437Z,1010.59
2016-07-22T04:27:35.073Z,1010.61
2016-07-22T04:30:48.695Z,1010.57
2016-07-22T04:34:02.444Z,1010.53
2016-07-22T04:37:15.932Z,1010.59
2016-07-22T04:40:33.657Z,1010.63
2016-07-22T04:43:38.656Z,1010.63
2016-07-22T04:46:52.350Z,1010.57
2016-07-22T04:50:06.142Z,1010.71
2016-07-22T04:53:19.830Z,1010.77
2016-07-22T04:56:33.379Z,1010.69
2016-07-22T04:59:45.249Z,1010.79
2016-07-22T05:02:59.026Z,1010.75
2016-07-22T05:06:12.721Z,1010.69
2016-07-22T05:09:30.190Z,1010.73
2016-07-22T05:12:35.265Z,1010.81
2016-07-22T05:15:49.107Z,1010.91
2016-07-22T05:19:02.776Z,1010.79
2016-07-22T05:22:16.707Z,1010.87
2016-07-22T05:25:34.700Z,1010.79
2016-07-22T05:28:39.996Z,1010.83
2016-07-22T05:31:53.930Z,1010.83
2016-07-22T05:35:07.917Z,1010.95
2016-07-22T05:38:21.984Z,1010.99
2016-07-22T05:41:35.786Z,1010.87
2016-07-22T05:44:49.710Z,1010.99
2016-07-22T05:48:03.587Z,1010.81
2016-07-22T05:51:17.001Z,1010.93
2016-07-22T05:54:34.589Z,1010.79
2016-07-22T05:57:39.826Z,1010.91
2016-07-22T06:00:53.620Z,1010.91
2016-07-22T06:04:07.661Z,1010.87
2016-07-22T06:07:21.531Z,1010.85
2016-07-22T06:10:35.180Z,1010.75
2016-07-22T06:13:49.503Z,1010.83
2016-07-22T06:17:03.419Z,1010.83
2016-07-22T06:20:15.343Z,1010.87
2016-07-22T06:23:30.607Z,1010.99
2016-07-22T06:26:36.009Z,1010.85
2016-07-22T06:29:50.323Z,1010.87
2016-07-22T06:33:04.528Z,1010.83
2016-07-22T06:36:16.988Z,1010.79
2016-07-22T06:39:35.324Z,1010.79
2016-07-22T06:42:41.042Z,1010.89
2016-07-22T06:45:55.146Z,1010.91
2016-07-22T06:49:09.386Z,1010.85
2016-07-22T06:52:27.594Z,1010.89
2016-07-22T06:55:33.487Z,1010.85
2016-07-22T06:58:48.065Z,1010.79
2016-07-22T07:02:02.605Z,1010.79
2016-07-22T07:05:16.128Z,1010.89
2016-07-22T07:08:36.226Z,1010.87
2016-07-22T07:11:42.341Z,1010.75
2016-07-22T07:14:57.149Z,1011.11
2016-07-22T07:18:11.530Z,1011.21
2016-07-22T07:21:29.802Z,1011.13
2016-07-22T07:24:35.335Z,1011.19
2016-07-22T07:27:49.641Z,1011.17
2016-07-22T07:31:03.969Z,1011.21
2016-07-22T07:34:18.302Z,1011.13
2016-07-22T07:37:36.720Z,1011.09
2016-07-22T07:40:42.382Z,1011.23
2016-07-22T07:43:56.673Z,1011.17
2016-07-22T07:47:10.894Z,1011.19
2016-07-22T07:50:22.792Z,1011.15
2016-07-22T07:53:37.046Z,1011.17
2016-07-22T07:56:51.305Z,1011.21
2016-07-22T08:00:05.356Z,1011.21
2016-07-22T08:03:19.645Z,1011.27
2016-07-22T08:06:34.162Z,1011.31
2016-07-22T08:09:48.610Z,1011.23
2016-07-22T08:13:02.857Z,1011.23
2016-07-22T08:16:17.333Z,1011.27
2016-07-22T08:19:35.916Z,1011.19
2016-07-22T08:22:41.644Z,1011.31
2016-07-22T08:25:56.117Z,1011.13
2016-07-22T08:29:10.241Z,1011.17
2016-07-22T08:32:28.310Z,1011.29
2016-07-22T08:35:34.060Z,1011.25
2016-07-22T08:38:48.339Z,1011.15
2016-07-22T08:42:02.511Z,1011.19
2016-07-22T08:45:15.193Z,1011.13
2016-07-22T08:48:33.606Z,1011.27
2016-07-22T08:51:39.358Z,1011.17
2016-07-22T08:54:53.963Z,1011.11
2016-07-22T08:58:08.320Z,1011.27
2016-07-22T09:01:22.454Z,1011.23
2016-07-22T09:04:36.512Z,1011.33
2016-07-22T09:07:50.990Z,1011.25
2016-07-22T09:11:05.311Z,1011.27
2016-07-22T09:14:19.794Z,1011.21
2016-07-22T09:17:34.141Z,1011.15
2016-07-22T09:20:48.589Z,1011.17
2016-07-22T09:24:02.859Z,1011.19
2016-07-22T09:27:17.294Z,1011.19
2016-07-22T09:30:35.603Z,1011.25
2016-07-22T09:33:41.387Z,1011.25
2016-07-22T09:36:55.757Z,1011.25
2016-07-22T09:40:10.231Z,1011.33
2016-07-22T09:43:28.449Z,1011.27
2016-07-22T09:46:34.171Z,1011.29
2016-07-22T09:49:48.467Z,1011.25
2016-07-22T09:53:02.867Z,1011.25
2016-07-22T09:56:17.218Z,1011.25
2016-07-22T09:59:35.645Z,1011.31
2016-07-22T10:02:41.432Z,1011.23
2016-07-22T10:05:55.788Z,1011.25
2016-07-22T10:09:10.222Z,1011.31
2016-07-22T10:12:28.373Z,1011.27
2016-07-22T10:15:37.983Z,1011.29
2016-07-22T10:18:43.659Z,1011.23
2016-07-22T10:21:58.115Z,1011.15
2016-07-22T10:25:12.290Z,1011.13
2016-07-22T10:28:30.777Z,1011.17
2016-07-22T10:31:36.363Z,1011.23
2016-07-22T10:34:50.724Z,1011.11
2016-07-22T10:38:05.086Z,1010.99
2016-07-22T10:41:19.512Z,1010.71
2016-07-22T10:44:37.004Z,1010.73
2016-07-22T10:47:42.896Z,1010.79
2016-07-22T10:50:57.412Z,1010.81
2016-07-22T10:54:12.276Z,1010.51
2016-07-22T10:57:31.175Z,1010.49
2016-07-22T11:00:37.176Z,1010.61
2016-07-22T11:03:51.536Z,1010.83
2016-07-22T11:07:06.187Z,1010.83
2016-07-22T11:10:20.763Z,1010.85
2016-07-22T11:13:35.173Z,1010.87
2016-07-22T11:16:49.584Z,1010.81
2016-07-22T11:20:03.695Z,1010.83
2016-07-22T11:23:17.889Z,1010.91
2016-07-22T11:26:36.483Z,1010.93
2016-07-22T11:29:42.080Z,1010.93
2016-07-22T11:32:56.457Z,1010.91
2016-07-22T11:36:10.755Z,1010.89
2016-07-22T11:39:23.383Z,1010.89
2016-07-22T11:42:37.872Z,1010.87
2016-07-22T11:45:52.129Z,1010.79
2016-07-22T11:49:06.647Z,1010.79
2016-07-22T11:52:20.872Z,1010.71
2016-07-22T11:55:35.356Z,1010.59
2016-07-22T11:58:49.754Z,1010.71
2016-07-22T12:02:04.256Z,1010.75
2016-07-22T12:05:18.431Z,1010.81
2016-07-22T12:08:36.866Z,1010.71
2016-07-22T12:11:42.630Z,1010.73
2016-07-22T12:14:57.090Z,1010.77
2016-07-22T12:18:11.487Z,1010.85
2016-07-22T12:21:29.543Z,1010.87
2016-07-22T12:24:35.215Z,1010.83
2016-07-22T12:27:49.597Z,1010.89
2016-07-22T12:31:03.654Z,1010.81
2016-07-22T12:34:16.057Z,1010.79
2016-07-22T12:37:34.392Z,1010.83
2016-07-22T12:40:40.063Z,1010.77
2016-07-22T12:43:54.474Z,1010.71
2016-07-22T12:47:08.760Z,1010.67
2016-07-22T12:50:23.013Z,1010.61
2016-07-22T12:53:37.186Z,1010.59
2016-07-22T12:56:51.333Z,1010.59
2016-07-22T13:00:05.700Z,1010.57
2016-07-22T13:03:19.710Z,1010.55
2016-07-22T13:06:37.869Z,1010.61
2016-07-22T13:09:43.526Z,1010.57
2016-07-22T13:12:55.105Z,1010.53
2016-07-22T13:16:09.488Z,1010.47
2016-07-22T13:19:23.757Z,1010.53
2016-07-22T13:22:38.081Z,1010.53
2016-07-22T13:25:49.625Z,1010.53
2016-07-22T13:29:03.887Z,1010.59
2016-07-22T13:32:18.068Z,1010.59
2016-07-22T13:35:36.333Z,1010.59
2016-07-22T13:38:42.113Z,1010.51
2016-07-22T13:41:56.328Z,1010.63
2016-07-22T13:45:10.698Z,1010.51
2016-07-22T13:48:24.963Z,1010.57
2016-07-22T13:51:39.363Z,1010.47
2016-07-22T13:54:53.735Z,1010.55
2016-07-22T13:58:08.230Z,1010.55
2016-07-22T14:01:22.460Z,1010.53
2016-07-22T14:04:36.717Z,1010.53
2016-07-22T14:07:51.182Z,1010.55
2016-07-22T18:08:34.719Z,1010.73
2016-07-22T18:11:50.676Z,1010.85
2016-07-22T18:14:56.238Z,1010.77
2016-07-22T18:18:10.077Z,1010.95
2016-07-22T18:21:24.301Z,1010.95
2016-07-22T18:24:38.575Z,1011.07
2016-07-22T18:27:52.686Z,1011.03
2016-07-22T18:31:05.740Z,1011.15
2016-07-22T18:34:20.844Z,1011.09
2016-07-22T18:37:35.019Z,1011.01
2016-07-22T18:40:53.208Z,1011.05
2016-07-22T18:43:58.822Z,1011.19
2016-07-22T18:47:13.137Z,1011.31
2016-07-22T18:50:27.395Z,1011.35
2016-07-22T18:53:45.834Z,1011.35
2016-07-22T18:56:51.187Z,1011.45
2016-07-22T19:00:05.360Z,1011.55
2016-07-22T19:03:19.345Z,1011.59
2016-07-22T19:06:33.325Z,1011.63
2016-07-22T19:09:51.032Z,1011.63
2016-07-22T19:12:56.364Z,1011.63
2016-07-22T19:16:10.384Z,1011.74
2016-07-22T19:19:24.354Z,1011.84
2016-07-22T19:22:37.755Z,1011.78
2016-07-22T19:25:51.762Z,1011.82
2016-07-22T19:29:05.020Z,1011.9
2016-07-22T19:32:19.004Z,1011.92
2016-07-22T19:35:32.501Z,1011.92
2016-07-22T19:38:50.360Z,1012.06
2016-07-22T19:41:55.504Z,1012
2016-07-22T19:45:09.079Z,1012.02
2016-07-22T19:48:23.019Z,1012.06
2016-07-22T19:51:36.882Z,1012.06
2016-07-22T19:54:50.681Z,1012.06
2016-07-22T19:58:04.486Z,1012
2016-07-22T20:01:18.406Z,1011.98
2016-07-22T20:04:32.394Z,1012.02
2016-07-22T20:07:50.418Z,1012.04
2016-07-22T20:10:55.522Z,1012.08
2016-07-22T20:14:09.404Z,1011.92
2016-07-22T20:17:23.156Z,1012
2016-07-22T20:20:36.820Z,1011.96
2016-07-22T20:23:50.638Z,1011.98
2016-07-22T20:27:02.236Z,1012.04
2016-07-22T20:30:16.244Z,1012.14
2016-07-22T20:33:28.079Z,1012.14
2016-07-22T20:36:45.943Z,1012.24
2016-07-22T20:39:51.165Z,1012.26
2016-07-22T20:43:04.808Z,1012.14
2016-07-22T20:46:18.242Z,1012.14
2016-07-22T20:49:32.168Z,1012.16
2016-07-22T20:52:49.766Z,1012.24
2016-07-22T20:55:54.962Z,1012.14
2016-07-22T20:59:08.899Z,1012.12
2016-07-22T21:02:22.850Z,1012.22
2016-07-22T21:05:36.685Z,1012.22
2016-07-22T21:08:50.705Z,1012.28
2016-07-22T21:12:04.579Z,1012.22
2016-07-22T21:15:18.637Z,1012.26
2016-07-22T21:18:31.330Z,1012.22
2016-07-22T21:21:50.264Z,1012.28
2016-07-22T21:24:55.436Z,1012.2
2016-07-22T21:28:09.394Z,1012.2
2016-07-22T21:31:23.225Z,1012.12
2016-07-22T21:34:36.874Z,1012.2
2016-07-22T21:37:50.709Z,1012.28
2016-07-22T21:41:04.341Z,1012.18
2016-07-22T21:44:18.137Z,1012.2
2016-07-22T21:47:32.055Z,1012.22
2016-07-22T21:50:49.777Z,1012.14
2016-07-22T21:53:54.861Z,1012.14
2016-07-22T21:57:08.688Z,1012.18
2016-07-22T22:00:21.444Z,1012.26
2016-07-22T22:03:36.285Z,1012.3
2016-07-22T22:06:53.779Z,1012.46
2016-07-22T22:09:58.932Z,1012.44
2016-07-22T22:13:12.692Z,1012.4
2016-07-22T22:16:26.594Z,1012.44
2016-07-22T22:19:40.331Z,1012.44
2016-07-22T22:22:53.976Z,1012.42
2016-07-22T22:26:07.646Z,1012.48
2016-07-22T22:29:21.259Z,1012.52
2016-07-22T22:32:35.035Z,1012.54
2016-07-22T22:35:53.044Z,1012.6
2016-07-22T22:38:58.084Z,1012.58
2016-07-22T22:42:11.958Z,1012.48
2016-07-22T22:45:25.607Z,1012.54
2016-07-22T22:48:39.170Z,1012.54
2016-07-22T22:51:52.660Z,1012.46
2016-07-22T22:55:06.122Z,1012.6
2016-07-22T22:58:20.188Z,1012.58
2016-07-22T23:01:30.986Z,1012.58
2016-07-22T23:04:45.951Z,1012.54
2016-07-22T23:07:51.072Z,1012.52
2016-07-22T23:11:03.975Z,1012.46
2016-07-22T23:14:17.776Z,1012.48
2016-07-22T23:17:30.996Z,1012.44
2016-07-22T23:20:48.392Z,1012.46
2016-07-22T23:23:53.248Z,1012.5
2016-07-22T23:27:06.832Z,1012.5
2016-07-22T23:30:20.352Z,1012.5
2016-07-22T23:33:33.979Z,1012.48
2016-07-22T23:36:51.838Z,1012.48
2016-07-22T23:39:56.747Z,1012.46
2016-07-22T23:43:10.292Z,1012.36
2016-07-22T23:46:22.946Z,1012.38
2016-07-22T23:49:36.639Z,1012.46
2016-07-22T23:52:54.154Z,1012.48
2016-07-22T23:55:59.120Z,1012.52
2016-07-22T23:59:10.795Z,1012.48
